»·PEaware :: ASA496 KSEA-KBOI

ASA496 :: KSEA-KBOI

FLIGHT INFORMATION

Flight Status: Arrived
Operator:
Alaska Airlines
More flights by this operator :: More flights under this callsign
Pilot: Andre N. (13929)
Aircraft: AIRBUS A319
(A319)
More flights by this aircraft type
Origin: KSEA Seattle-Tacoma Intl
United States
Destination: KBOI Boise Air Terminal/Gowen
United States
More flights between these airports :: More routes between these airports
Route: +SUMMA1 SUMMA J54 BKE DEVLE KYAAN3
File this flight plan on PilotEdge
Remarks:
Altitude:
(Current/Filed)
37,000ft
Speed:
(Current/Filed)
450kts
Departed: 27-Mar-18 09:42 AM
Arrived: 27-Mar-18 10:50 AM
Distance/Time
Traveled:
346nm/1:08
Distance/Time
To Go:
Arrived

Flight Plot

Page will automatically refresh every two minutes.

Flight plan parsing failed; only flown route is shown


Map Options




Map Legend


Flown Route
Filed Route
Departure Airport
Arrival Airport
Navaid (VOR, NDB)
Fix

Horizontal Profiles

Position Reports

Time Latitude Longitude Heading Altitude Ground
Speed
27-Mar-18 09:17 47.445088 -122.301829 139 442ft 0kts
27-Mar-18 09:18 47.445088 -122.301829 139 442ft 0kts
27-Mar-18 09:19 47.445088 -122.301829 139 442ft 0kts
27-Mar-18 09:20 47.445088 -122.301829 139 442ft 0kts
27-Mar-18 09:21 47.445088 -122.301829 139 442ft 0kts
27-Mar-18 09:22 47.445088 -122.301829 139 442ft 0kts
27-Mar-18 09:23 47.445088 -122.301829 139 442ft 0kts
27-Mar-18 09:24 47.445088 -122.301829 139 442ft 0kts
27-Mar-18 09:25 47.445088 -122.301829 139 442ft 0kts
27-Mar-18 09:26 47.445088 -122.301829 139 442ft 0kts
27-Mar-18 09:27 47.445088 -122.301829 139 442ft 0kts
27-Mar-18 09:28 47.445088 -122.301829 139 442ft 0kts
27-Mar-18 09:29 47.445088 -122.301829 139 442ft 0kts
27-Mar-18 09:30 47.445088 -122.301829 139 442ft 0kts
27-Mar-18 09:31 47.445239 -122.302012 133 442ft 2kts
27-Mar-18 09:32 47.445465 -122.302561 99 442ft 1kts
27-Mar-18 09:33 47.445467 -122.302577 100 442ft 0kts
27-Mar-18 09:34 47.445467 -122.302577 100 442ft 0kts
27-Mar-18 09:35 47.445460 -122.302548 95 442ft 2kts
27-Mar-18 09:36 47.447905 -122.304800 294 442ft 20kts
27-Mar-18 09:37 47.453736 -122.306236 0 442ft 27kts
27-Mar-18 09:38 47.461396 -122.306160 0 442ft 27kts
27-Mar-18 09:39 47.463565 -122.306250 330 442ft 0kts
27-Mar-18 09:40 47.463764 -122.306919 259 442ft 14kts
27-Mar-18 09:41 47.442435 -122.307469 182 1168ft 142kts
27-Mar-18 09:42 47.403635 -122.307745 182 3734ft 180kts
27-Mar-18 09:43 47.347722 -122.308342 182 6672ft 237kts
27-Mar-18 09:44 47.285985 -122.308664 186 10451ft 242kts
27-Mar-18 09:45 47.215361 -122.296187 160 13233ft 301kts
27-Mar-18 09:46 47.137013 -122.238348 169 15664ft 330kts
27-Mar-18 09:47 47.051434 -122.196960 169 18230ft 344kts
27-Mar-18 09:48 46.959822 -122.152603 169 20595ft 359kts
27-Mar-18 09:49 46.864234 -122.106481 169 22684ft 376kts
27-Mar-18 09:50 46.770827 -122.061564 169 24540ft 388kts
27-Mar-18 09:51 46.681369 -122.018699 169 26096ft 400kts
27-Mar-18 09:52 46.592646 -121.931473 120 27669ft 434kts
27-Mar-18 09:53 46.535320 -121.780947 119 29282ft 442kts
27-Mar-18 09:54 46.477024 -121.633319 120 31078ft 440kts
27-Mar-18 09:55 46.419037 -121.488261 120 32632ft 439kts
27-Mar-18 09:56 46.362649 -121.348023 120 34013ft 438kts
27-Mar-18 09:57 46.303103 -121.200293 120 35275ft 437kts
27-Mar-18 09:58 46.242029 -121.049975 121 36428ft 436kts
27-Mar-18 09:59 46.180715 -120.899949 121 37334ft 439kts
27-Mar-18 10:00 46.118660 -120.748938 121 37364ft 442kts
27-Mar-18 10:01 46.057364 -120.600577 121 37364ft 442kts
27-Mar-18 10:02 45.994638 -120.449569 121 37364ft 442kts
27-Mar-18 10:03 45.932356 -120.300280 121 37353ft 441kts
27-Mar-18 10:04 45.871992 -120.156699 122 37357ft 441kts
27-Mar-18 10:05 45.809154 -120.008436 121 37364ft 441kts
27-Mar-18 10:06 45.745563 -119.858610 121 37364ft 441kts
27-Mar-18 10:07 45.683130 -119.712249 121 37364ft 441kts
27-Mar-18 10:08 45.619970 -119.564958 121 37364ft 441kts
27-Mar-18 10:09 45.556283 -119.417222 121 37364ft 441kts
27-Mar-18 10:10 45.494639 -119.274686 122 37358ft 441kts
27-Mar-18 10:11 45.430213 -119.126557 122 37364ft 441kts
27-Mar-18 10:12 45.365554 -118.978878 122 37364ft 441kts
27-Mar-18 10:13 45.300639 -118.831390 122 37364ft 441kts
27-Mar-18 10:14 45.236203 -118.685750 122 37364ft 440kts
27-Mar-18 10:15 45.171085 -118.539323 122 37364ft 440kts
27-Mar-18 10:16 45.106432 -118.394679 122 37364ft 440kts
27-Mar-18 10:17 45.041450 -118.249700 123 36938ft 438kts
27-Mar-18 10:18 44.976191 -118.105121 123 35056ft 438kts
27-Mar-18 10:19 44.910459 -117.960379 123 33030ft 441kts
27-Mar-18 10:20 44.841795 -117.818066 135 30860ft 442kts
27-Mar-18 10:21 44.743334 -117.719652 153 28679ft 435kts
27-Mar-18 10:22 44.641491 -117.629316 152 26501ft 434kts
27-Mar-18 10:23 44.541239 -117.539888 152 24748ft 421kts
27-Mar-18 10:24 44.444011 -117.453517 152 23046ft 409kts
27-Mar-18 10:25 44.349550 -117.369949 153 21346ft 399kts
27-Mar-18 10:26 44.257656 -117.288686 153 19456ft 395kts
27-Mar-18 10:27 44.170753 -117.195172 140 17448ft 399kts
27-Mar-18 10:28 44.090814 -117.089758 140 15430ft 395kts
27-Mar-18 10:29 44.011363 -116.986169 141 13416ft 386kts
27-Mar-18 10:30 43.942517 -116.877696 124 11402ft 367kts
27-Mar-18 10:31 43.888116 -116.764422 125 9399ft 358kts
27-Mar-18 10:32 43.837509 -116.661092 122 7986ft 322kts
27-Mar-18 10:33 43.790698 -116.566272 123 7986ft 290kts
27-Mar-18 10:34 43.745096 -116.474413 123 7987ft 290kts
27-Mar-18 10:35 43.699304 -116.382613 123 7987ft 290kts
27-Mar-18 10:36 43.660219 -116.286338 112 7984ft 288kts
27-Mar-18 10:37 43.626092 -116.187581 113 7986ft 277kts
27-Mar-18 10:38 43.592153 -116.092233 113 7985ft 271kts
27-Mar-18 10:39 43.559357 -116.000590 112 7990ft 266kts
27-Mar-18 10:40 43.523788 -115.911763 140 7837ft 263kts
27-Mar-18 10:41 43.474671 -115.915887 278 6668ft 151kts
27-Mar-18 10:42 43.477352 -115.971993 292 6350ft 143kts
27-Mar-18 10:43 43.491506 -116.019607 301 5891ft 115kts
27-Mar-18 10:44 43.505539 -116.055489 308 5011ft 106kts
27-Mar-18 10:45 43.520110 -116.091306 301 4750ft 110kts
27-Mar-18 10:46 43.533263 -116.129536 302 4082ft 113kts
27-Mar-18 10:47 43.546806 -116.168846 304 3468ft 115kts
27-Mar-18 10:48 43.560752 -116.209178 302 2881ft 107kts
27-Mar-18 10:49 43.563982 -116.216753 355 2880ft 0kts
27-Mar-18 10:50 43.565350 -116.219028 296 2880ft 30kts
27-Mar-18 10:51 43.567503 -116.222616 26 2880ft 0kts

Navigation Log

Ident Type
Flight plan parsing failed, navigation log unavailable